Time;durP1;ratioP1;P1;durP2;ratioP2;P2;SDS_P1;SDS_P2;PMS_P1;PMS_P2;Temp;Humidity;BMP_temperature;BMP_pressure;BME280_temperature;BME280_humidity;BME280_pressure;Samples;Min_cycle;Max_cycle;Signal;HPM_P1;HPM_P2
2022/04/04 00:01:43;;;;;;;4.38;1.42;;;;;;;14.61;58.25;100817.25;4931890;29;20051;-76
2022/04/04 00:04:12;;;;;;;3.25;1.02;;;;;;;14.57;57.68;100814.59;4933613;29;20081;-75
2022/04/04 00:06:40;;;;;;;4.75;1.23;;;;;;;14.62;57.17;100812.91;4935262;29;20048;-76
2022/04/04 00:09:09;;;;;;;5.22;1.13;;;;;;;14.62;57.58;100799.91;4933149;29;20650;-75
2022/04/04 00:11:37;;;;;;;4.47;1.15;;;;;;;14.57;57.19;100791.16;4931827;29;20107;-76
2022/04/04 00:14:07;;;;;;;7.15;1.70;;;;;;;14.57;58.17;100788.56;4931637;29;20043;-74
2022/04/04 00:16:36;;;;;;;5.22;1.40;;;;;;;14.52;58.82;100791.03;4932472;28;20418;-73
2022/04/04 00:19:05;;;;;;;2.63;1.05;;;;;;;14.47;59.34;100784.88;4932075;29;20501;-75
2022/04/04 00:21:34;;;;;;;5.95;1.55;;;;;;;14.46;59.70;100776.22;4931702;29;20052;-72
2022/04/04 00:24:02;;;;;;;6.38;1.17;;;;;;;14.36;59.97;100758.72;4931469;29;20044;-74
2022/04/04 00:26:31;;;;;;;4.57;1.13;;;;;;;14.37;59.59;100757.84;4931744;29;20573;-74
2022/04/04 00:28:59;;;;;;;3.42;1.02;;;;;;;14.38;59.58;100757.00;4931261;29;20059;-74
2022/04/04 00:31:29;;;;;;;5.65;1.65;;;;;;;14.30;61.13;100737.81;4932298;29;20451;-74
2022/04/04 00:33:58;;;;;;;3.25;1.50;;;;;;;14.35;62.21;100749.16;4931737;29;20142;-71
2022/04/04 00:36:27;;;;;;;4.22;1.35;;;;;;;14.36;61.96;100739.59;4930719;29;20550;-70
2022/04/04 00:38:55;;;;;;;4.72;1.55;;;;;;;14.36;63.70;100737.91;4931826;29;20052;-70
2022/04/04 00:41:24;;;;;;;2.83;1.23;;;;;;;14.39;62.09;100730.13;4931602;29;20331;-71
2022/04/04 00:43:53;;;;;;;7.72;1.65;;;;;;;14.40;63.57;100734.47;4931453;29;20143;-71
2022/04/04 00:46:22;;;;;;;5.50;1.38;;;;;;;14.39;63.61;100732.72;4931818;29;20079;-71
2022/04/04 00:48:52;;;;;;;7.78;1.60;;;;;;;14.37;61.64;100724.03;4931257;29;20063;-71
2022/04/04 00:51:21;;;;;;;5.70;1.33;;;;;;;14.33;62.04;100717.00;4931298;29;20131;-71
2022/04/04 00:53:50;;;;;;;4.80;1.38;;;;;;;14.17;62.55;100704.66;4930967;29;20051;-72
2022/04/04 00:56:19;;;;;;;4.07;0.85;;;;;;;14.11;63.14;100699.34;4930994;29;20474;-71
2022/04/04 00:58:47;;;;;;;6.00;1.23;;;;;;;13.96;63.67;100693.09;4931871;29;20514;-73
2022/04/04 01:01:16;;;;;;;4.72;1.17;;;;;;;14.00;65.42;100694.88;4934218;29;20063;-72
2022/04/04 01:03:44;;;;;;;6.18;1.52;;;;;;;13.93;66.16;100692.19;4931308;29;20048;-72
2022/04/04 01:06:14;;;;;;;4.15;1.02;;;;;;;13.79;67.08;100676.38;4931052;29;20051;-71
2022/04/04 01:08:43;;;;;;;4.22;1.45;;;;;;;13.87;69.05;100673.88;4930348;29;20067;-69
2022/04/04 01:11:12;;;;;;;5.70;1.70;;;;;;;13.85;69.48;100671.25;4931405;29;20075;-70
2022/04/04 01:13:46;;;;;;;5.65;1.40;;;;;;;13.76;64.94;100671.97;4931567;29;20878;-71
2022/04/04 01:16:15;;;;;;;5.55;1.38;;;;;;;13.68;65.70;100664.94;4931420;28;20056;-72
2022/04/04 01:18:44;;;;;;;4.60;0.98;;;;;;;13.59;64.95;100674.31;4930813;29;20059;-69
2022/04/04 01:21:14;;;;;;;4.38;0.75;;;;;;;13.48;66.90;100670.69;4931076;29;20661;-74
2022/04/04 01:23:45;;;;;;;7.00;1.08;;;;;;;13.34;66.65;100666.97;4930931;29;20075;-71
2022/04/04 01:26:15;;;;;;;3.47;0.90;;;;;;;13.29;69.03;100666.91;4931337;29;20079;-71
2022/04/04 01:28:44;;;;;;;1.73;0.52;;;;;;;13.08;66.69;100662.19;4931098;29;20095;-73
2022/04/04 01:31:12;;;;;;;3.30;0.70;;;;;;;13.05;69.53;100659.50;4931103;29;20052;-70
2022/04/04 01:33:41;;;;;;;2.70;0.75;;;;;;;12.98;70.02;100642.94;4930556;29;20052;-71
2022/04/04 01:36:09;;;;;;;1.55;0.40;;;;;;;12.95;68.10;100658.47;4930087;29;20454;-71
2022/04/04 01:38:38;;;;;;;4.45;0.70;;;;;;;12.92;70.44;100660.16;4929411;29;20055;-70
2022/04/04 01:41:07;;;;;;;3.00;0.82;;;;;;;12.86;69.67;100653.13;4929825;29;20055;-72
2022/04/04 01:43:37;;;;;;;1.92;0.40;;;;;;;12.63;69.32;100652.69;4930286;29;20048;-74
2022/04/04 01:48:50;;;;;;;1.70;0.50;;;;;;;12.49;69.90;100629.06;4934308;29;20075;-72
2022/04/04 01:51:19;;;;;;;1.35;0.50;;;;;;;12.48;69.63;100636.81;4933657;29;20434;-76
2022/04/04 01:53:48;;;;;;;2.30;0.40;;;;;;;12.46;71.49;100638.50;4934898;29;20474;-72
2022/04/04 01:56:17;;;;;;;2.17;0.52;;;;;;;12.43;72.79;100625.47;4937925;29;20051;-71
2022/04/04 01:58:47;;;;;;;1.77;0.60;;;;;;;12.35;71.34;100623.59;4935412;29;20124;-74
2022/04/04 02:01:17;;;;;;;3.75;1.45;;;;;;;12.34;73.40;100627.00;4934120;29;20052;-72
2022/04/04 02:03:47;;;;;;;2.15;0.60;;;;;;;12.30;73.88;100627.81;4934136;29;20131;-70
2022/04/04 02:06:16;;;;;;;1.08;0.40;;;;;;;12.30;74.53;100630.41;4934321;29;20055;-69
2022/04/04 02:08:45;;;;;;;2.58;0.82;;;;;;;12.29;75.38;100628.66;4933983;29;20589;-70
2022/04/04 02:11:15;;;;;;;1.80;0.70;;;;;;;12.22;74.12;100619.00;4934012;29;20086;-71
2022/04/04 02:13:44;;;;;;;1.95;0.77;;;;;;;12.14;74.51;100605.00;4933839;29;20087;-71
2022/04/04 02:16:15;;;;;;;1.40;0.65;;;;;;;12.20;74.29;100612.91;4934214;28;20059;-70
2022/04/04 02:18:43;;;;;;;2.88;0.93;;;;;;;12.09;73.89;100604.00;4933816;29;20103;-73
2022/04/04 02:21:12;;;;;;;2.67;0.70;;;;;;;12.02;72.66;100602.13;4933642;29;20617;-72
2022/04/04 02:23:41;;;;;;;1.55;0.65;;;;;;;12.06;73.52;100606.56;4934326;29;20078;-74
2022/04/04 02:26:09;;;;;;;1.48;0.55;;;;;;;11.91;72.13;100595.03;4933384;29;20103;-79
2022/04/04 02:28:38;;;;;;;1.77;0.50;;;;;;;11.97;72.24;100611.53;4933680;29;20083;-73
2022/04/04 02:31:09;;;;;;;3.72;0.57;;;;;;;11.95;73.07;100603.72;4934290;29;20528;-76
2022/04/04 02:33:42;;;;;;;3.65;1.08;;;;;;;11.89;74.00;100583.75;4933520;29;20059;-74
2022/04/04 02:36:13;;;;;;;2.88;1.30;;;;;;;11.81;73.23;100574.88;4933472;29;20131;-73
2022/04/04 02:38:41;;;;;;;1.80;0.82;;;;;;;11.90;73.92;100594.97;4933985;29;20044;-73
2022/04/04 02:41:12;;;;;;;3.58;0.77;;;;;;;11.90;73.24;100587.19;4933931;29;20111;-74
2022/04/04 02:43:41;;;;;;;1.98;0.60;;;;;;;11.79;73.63;100567.91;4933041;29;20151;-72
2022/04/04 02:46:11;;;;;;;2.30;0.50;;;;;;;11.70;75.07;100563.41;4934051;29;20059;-71
2022/04/04 02:48:45;;;;;;;1.95;0.60;;;;;;;11.65;75.57;100571.06;4933776;29;20059;-77
2022/04/04 02:51:14;;;;;;;0.80;0.55;;;;;;;11.60;74.60;100567.50;4936356;29;20095;-74
2022/04/04 02:53:43;;;;;;;1.30;0.82;;;;;;;11.62;76.54;100577.94;4934501;29;20044;-71
2022/04/04 02:58:57;;;;;;;3.38;0.68;;;;;;;11.50;77.70;100558.66;4933187;29;20167;-72
2022/04/04 03:01:25;;;;;;;3.92;0.80;;;;;;;11.54;78.58;100562.19;4933104;29;20134;-71
2022/04/04 03:03:56;;;;;;;2.55;0.63;;;;;;;11.50;78.55;100556.06;4932866;29;20048;-72
2022/04/04 03:06:24;;;;;;;2.95;0.60;;;;;;;11.46;79.00;100549.06;4932920;29;20048;-71
2022/04/04 03:08:53;;;;;;;3.17;0.55;;;;;;;11.46;80.73;100551.66;4933272;29;20059;-71
2022/04/04 03:11:22;;;;;;;4.97;0.93;;;;;;;11.37;79.08;100535.91;4932969;29;20443;-74
2022/04/04 03:13:51;;;;;;;1.48;0.60;;;;;;;11.22;78.98;100513.09;4932941;29;20043;-72
2022/04/04 03:16:19;;;;;;;2.05;0.40;;;;;;;11.27;79.91;100537.41;4933488;28;20447;-71
2022/04/04 03:18:48;;;;;;;7.97;0.63;;;;;;;11.23;80.55;100527.81;4933649;29;20055;-71
2022/04/04 03:21:18;;;;;;;2.47;0.50;;;;;;;11.16;81.92;100525.94;4932399;29;20103;-77
2022/04/04 03:23:47;;;;;;;1.08;0.57;;;;;;;11.09;81.41;100524.91;4932551;29;20048;-72
2022/04/04 03:26:15;;;;;;;3.78;0.77;;;;;;;11.14;82.72;100525.03;4933312;29;20055;-71
2022/04/04 03:28:45;;;;;;;2.55;0.57;;;;;;;10.96;83.46;100499.56;4932728;29;20055;-74
2022/04/04 03:31:14;;;;;;;0.50;0.30;;;;;;;11.01;85.42;100508.31;4932191;29;20070;-71
2022/04/04 03:33:43;;;;;;;1.85;0.43;;;;;;;10.96;86.99;100509.91;4932202;29;20763;-72
2022/04/04 03:36:12;;;;;;;3.20;0.60;;;;;;;10.86;86.59;100498.47;4932060;29;20636;-71
2022/04/04 03:38:43;;;;;;;2.83;0.45;;;;;;;10.85;88.45;100511.38;4932964;29;20410;-73
2022/04/04 03:41:11;;;;;;;1.15;0.70;;;;;;;10.80;90.85;100492.28;4933019;29;20086;-75
2022/04/04 03:43:40;;;;;;;0.60;0.60;;;;;;;10.80;92.64;100495.72;4932429;29;20510;-72
2022/04/04 03:46:08;;;;;;;0.88;0.38;;;;;;;10.73;96.09;100478.31;4934920;29;20051;-73
2022/04/04 03:48:37;;;;;;;1.90;0.38;;;;;;;10.55;98.52;100465.78;4935191;29;20077;-80
2022/04/04 03:51:06;;;;;;;4.00;2.83;;;;;;;10.59;100.00;100483.16;4933132;29;20135;-75
2022/04/04 03:53:40;;;;;;;3.60;1.08;;;;;;;10.56;100.00;100487.34;4932671;29;20824;-81
2022/04/04 03:56:11;;;;;;;1.65;0.52;;;;;;;10.51;100.00;100469.13;4932699;29;20106;-71
2022/04/04 03:58:39;;;;;;;0.85;0.30;;;;;;;10.58;100.00;100481.41;4932432;29;20055;-80
2022/04/04 04:01:08;;;;;;;0.52;0.35;;;;;;;10.45;100.00;100443.13;4932910;29;20540;-72
2022/04/04 04:03:36;;;;;;;1.95;1.00;;;;;;;10.51;100.00;100451.03;4931982;29;20107;-74
2022/04/04 04:06:16;;;;;;;1.85;0.55;;;;;;;10.52;100.00;100451.91;4932520;29;20114;-72
2022/04/04 04:08:47;;;;;;;7.05;0.70;;;;;;;10.47;100.00;100446.63;4923887;29;20582;-72
2022/04/04 04:11:18;;;;;;;3.42;0.70;;;;;;;10.39;100.00;100432.63;4913216;29;20068;-71
2022/04/04 04:13:48;;;;;;;1.05;0.50;;;;;;;10.35;100.00;100425.63;4919901;29;20044;-71
2022/04/04 04:16:17;;;;;;;1.63;0.70;;;;;;;10.33;100.00;100428.19;4932312;29;20050;-71
2022/04/04 04:18:46;;;;;;;4.38;1.30;;;;;;;10.30;100.00;100422.03;4931186;29;20122;-73
2022/04/04 04:21:14;;;;;;;2.35;0.95;;;;;;;10.29;100.00;100418.59;4932151;29;20147;-71
2022/04/04 04:23:44;;;;;;;1.60;0.52;;;;;;;10.21;100.00;100408.00;4931689;29;20047;-72
2022/04/04 04:26:13;;;;;;;6.57;1.10;;;;;;;10.19;100.00;100399.34;4931910;29;20047;-72
2022/04/04 04:28:45;;;;;;;3.58;0.73;;;;;;;10.15;100.00;100394.06;4931715;29;20605;-70
2022/04/04 04:31:14;;;;;;;1.10;0.50;;;;;;;10.10;100.00;100391.38;4931929;29;20052;-72
2022/04/04 04:33:42;;;;;;;1.85;0.88;;;;;;;10.07;100.00;100383.50;4931333;29;20102;-70
2022/04/04 04:36:12;;;;;;;5.10;1.02;;;;;;;10.00;100.00;100386.78;4931885;29;20051;-71
2022/04/04 04:38:40;;;;;;;3.47;0.85;;;;;;;10.00;100.00;100371.28;4931981;29;20047;-70
2022/04/04 04:41:09;;;;;;;6.30;0.93;;;;;;;10.01;100.00;100373.00;4931683;29;20044;-70
2022/04/04 04:43:39;;;;;;;3.70;0.82;;;;;;;10.02;100.00;100375.66;4933956;29;20079;-70
2022/04/04 04:46:10;;;;;;;3.28;1.17;;;;;;;10.02;100.00;100367.88;4931305;29;20055;-72
2022/04/04 04:48:38;;;;;;;3.90;0.82;;;;;;;10.01;100.00;100368.75;4931564;29;20058;-72
2022/04/04 04:51:07;;;;;;;3.95;0.70;;;;;;;10.00;100.00;100363.53;4931193;29;20134;-72
2022/04/04 04:53:36;;;;;;;7.50;1.42;;;;;;;10.01;100.00;100358.41;4931700;29;20044;-71
2022/04/04 04:56:05;;;;;;;5.72;1.10;;;;;;;9.93;100.00;100353.88;4931571;29;20410;-71
2022/04/04 04:58:33;;;;;;;3.70;1.08;;;;;;;9.97;100.00;100350.53;4931621;29;20051;-71
2022/04/04 05:01:02;;;;;;;2.40;0.82;;;;;;;9.94;100.00;100340.09;4931937;29;20070;-73
2022/04/04 05:03:33;;;;;;;2.97;1.25;;;;;;;9.91;100.00;100329.69;4931165;29;20130;-70
2022/04/04 05:06:02;;;;;;;2.67;1.27;;;;;;;9.91;100.00;100316.78;4931074;29;20075;-71
2022/04/04 05:08:31;;;;;;;5.30;1.20;;;;;;;9.90;100.00;100327.97;4930892;29;20406;-71
2022/04/04 05:11:00;;;;;;;3.28;0.93;;;;;;;9.88;100.00;100304.66;4931656;29;20130;-71
2022/04/04 05:13:29;;;;;;;4.68;1.10;;;;;;;9.78;100.00;100295.81;4931184;29;20481;-75
2022/04/04 05:15:58;;;;;;;7.82;1.05;;;;;;;9.83;100.00;100301.09;4931313;29;20481;-73
2022/04/04 05:18:27;;;;;;;5.93;1.38;;;;;;;9.83;100.00;100285.59;4931659;28;20525;-73
2022/04/04 05:20:59;;;;;;;3.53;1.00;;;;;;;9.76;100.00;100300.06;4931282;29;20055;-78
2022/04/04 05:23:27;;;;;;;4.18;1.98;;;;;;;9.78;100.00;100290.63;4930739;29;20059;-72
2022/04/04 05:25:55;;;;;;;2.97;1.10;;;;;;;9.75;100.00;100302.59;4931076;29;20102;-73
2022/04/04 05:28:24;;;;;;;5.35;1.25;;;;;;;9.74;100.00;100298.28;4930319;29;20111;-72
2022/04/04 05:30:53;;;;;;;1.50;0.70;;;;;;;9.70;100.00;100293.84;4930763;29;20052;-72
2022/04/04 05:33:21;;;;;;;5.18;1.15;;;;;;;9.69;100.00;100295.56;4930204;29;20052;-73
2022/04/04 05:35:50;;;;;;;1.83;0.90;;;;;;;9.65;100.00;100280.81;4930989;29;20059;-71
2022/04/04 05:38:20;;;;;;;9.48;0.90;;;;;;;9.69;100.00;100277.50;4931028;29;20047;-71
2022/04/04 05:40:49;;;;;;;5.22;1.38;;;;;;;9.68;100.00;100269.69;4934565;29;20114;-71
2022/04/04 05:43:17;;;;;;;1.75;1.00;;;;;;;9.67;100.00;100258.47;4931279;29;20048;-72
2022/04/04 05:45:46;;;;;;;7.03;1.10;;;;;;;9.63;100.00;100242.03;4931380;29;20060;-72
2022/04/04 05:48:14;;;;;;;5.00;1.10;;;;;;;9.61;100.00;100227.31;4930354;29;20047;-72
2022/04/04 05:50:50;;;;;;;2.38;1.05;;;;;;;9.57;100.00;100217.75;4930177;29;20914;-73
2022/04/04 05:53:20;;;;;;;3.72;1.00;;;;;;;9.44;100.00;100214.88;4930718;29;20129;-73
2022/04/04 05:55:49;;;;;;;1.90;0.98;;;;;;;9.49;100.00;100208.94;4930914;29;20135;-75
2022/04/04 05:58:17;;;;;;;4.00;1.08;;;;;;;9.39;100.00;100195.81;4930886;29;20048;-72
2022/04/04 06:00:46;;;;;;;5.20;1.30;;;;;;;9.42;100.00;100187.25;4931352;29;20148;-71
2022/04/04 06:03:15;;;;;;;3.88;1.42;;;;;;;9.49;100.00;100196.03;4930557;29;20055;-71
2022/04/04 06:05:43;;;;;;;5.75;1.23;;;;;;;9.41;100.00;100194.16;4930910;29;20059;-72
2022/04/04 06:08:11;;;;;;;1.35;0.80;;;;;;;9.48;100.00;100194.28;4930485;29;20138;-73
2022/04/04 06:10:44;;;;;;;4.75;1.95;;;;;;;9.44;100.00;100189.03;4930972;29;20565;-73
2022/04/04 06:13:12;;;;;;;2.53;1.00;;;;;;;9.47;100.00;100182.22;4930660;29;20490;-72
2022/04/04 06:15:42;;;;;;;5.95;1.45;;;;;;;9.46;100.00;100181.34;4930728;29;20421;-70
2022/04/04 06:18:11;;;;;;;2.65;1.80;;;;;;;9.47;100.00;100188.25;4930626;28;20884;-72
2022/04/04 06:20:39;;;;;;;3.03;1.08;;;;;;;9.48;100.00;100183.94;4930890;29;20458;-73
2022/04/04 06:23:08;;;;;;;3.22;0.82;;;;;;;9.47;100.00;100177.06;4930300;29;20058;-72
2022/04/04 06:25:37;;;;;;;2.50;1.08;;;;;;;9.44;100.00;100178.72;4930523;29;20380;-73
2022/04/04 06:28:07;;;;;;;6.10;1.63;;;;;;;9.43;100.00;100171.78;4929942;29;20569;-73
2022/04/04 06:30:39;;;;;;;2.58;1.40;;;;;;;9.48;100.00;100178.78;4930006;29;20162;-73
2022/04/04 06:33:08;;;;;;;2.95;1.10;;;;;;;9.48;100.00;100155.53;4930194;29;20052;-71
2022/04/04 06:35:37;;;;;;;3.20;1.02;;;;;;;9.46;100.00;100132.28;4933271;29;20052;-75
2022/04/04 06:38:05;;;;;;;5.50;1.83;;;;;;;9.36;100.00;100126.00;4936783;29;20074;-74
2022/04/04 06:40:34;;;;;;;3.30;1.08;;;;;;;9.34;100.00;100109.59;4934684;29;20126;-78
2022/04/04 06:43:02;;;;;;;11.75;1.55;;;;;;;9.35;100.00;100100.16;4933526;29;20060;-72
2022/04/04 06:45:32;;;;;;;7.07;1.50;;;;;;;9.32;100.00;100100.06;4933548;29;20047;-74
2022/04/04 06:48:02;;;;;;;5.13;0.90;;;;;;;9.32;100.00;100085.47;4933843;29;20498;-72
2022/04/04 06:50:30;;;;;;;4.00;1.05;;;;;;;9.34;100.00;100082.91;4932726;29;20113;-72
2022/04/04 06:52:59;;;;;;;2.78;1.08;;;;;;;9.33;100.00;100101.84;4933722;29;20048;-76
2022/04/04 06:55:28;;;;;;;5.20;1.20;;;;;;;9.29;100.00;100106.03;4933294;29;20081;-71
2022/04/04 06:57:57;;;;;;;6.80;1.88;;;;;;;9.32;100.00;100111.28;4932735;29;20204;-73
2022/04/04 07:00:25;;;;;;;7.18;1.10;;;;;;;9.32;100.00;100100.06;4933230;29;20057;-73
2022/04/04 07:02:58;;;;;;;7.03;1.55;;;;;;;9.29;100.00;100103.44;4933160;29;20181;-73
2022/04/04 07:05:26;;;;;;;4.68;0.95;;;;;;;9.27;100.00;100081.88;4933300;29;20784;-74
2022/04/04 07:07:55;;;;;;;2.92;1.13;;;;;;;9.22;100.00;100063.72;4933190;29;20048;-74
2022/04/04 07:10:23;;;;;;;4.43;0.93;;;;;;;9.22;100.00;100063.72;4933576;29;20094;-79
2022/04/04 07:12:52;;;;;;;5.65;1.35;;;;;;;9.19;100.00;100032.69;4933609;29;20043;-74
2022/04/04 07:15:21;;;;;;;1.77;1.10;;;;;;;9.18;100.00;100030.03;4932697;29;20056;-77
2022/04/04 07:17:55;;;;;;;5.32;1.30;;;;;;;9.20;100.00;100038.69;4926630;28;20474;-78
2022/04/04 07:20:31;;;;;;;8.05;2.15;;;;;;;9.17;100.00;99998.22;4914227;29;20060;-73
2022/04/04 07:23:01;;;;;;;4.28;1.00;;;;;;;9.16;100.00;100000.75;4930356;29;20087;-72
2022/04/04 07:25:30;;;;;;;4.88;1.35;;;;;;;9.16;100.00;100001.63;4932665;29;20051;-78
2022/04/04 07:28:08;;;;;;;4.47;0.98;;;;;;;9.15;100.00;100004.19;4933154;29;20404;-76
2022/04/04 07:30:37;;;;;;;2.17;0.68;;;;;;;9.14;100.00;99998.16;4932150;29;20066;-77
2022/04/04 07:33:06;;;;;;;4.90;1.00;;;;;;;9.15;100.00;99999.00;4933641;29;20518;-73
2022/04/04 07:35:36;;;;;;;4.15;1.55;;;;;;;9.17;100.00;100002.50;4936381;29;20056;-76
2022/04/04 07:38:05;;;;;;;1.67;0.90;;;;;;;9.15;100.00;99986.97;4934185;29;20055;-77
2022/04/04 07:40:33;;;;;;;2.97;0.90;;;;;;;9.13;100.00;99990.34;4932946;29;20107;-78
2022/04/04 07:43:02;;;;;;;6.40;1.52;;;;;;;9.11;100.00;99977.41;4932740;29;20079;-76
2022/04/04 07:45:31;;;;;;;3.58;1.42;;;;;;;9.13;100.00;99969.72;4932322;29;20055;-74
2022/04/04 07:48:00;;;;;;;1.77;0.93;;;;;;;9.11;100.00;99955.91;4932787;29;20065;-74
2022/04/04 07:50:30;;;;;;;2.58;0.85;;;;;;;9.17;100.00;99958.63;4932842;29;20509;-73
2022/04/04 07:53:03;;;;;;;3.63;1.33;;;;;;;9.13;100.00;99947.34;4933118;29;20119;-73
2022/04/04 07:55:32;;;;;;;3.03;1.08;;;;;;;9.14;100.00;99935.31;4933097;29;20482;-75
2022/04/04 07:58:00;;;;;;;4.07;0.82;;;;;;;9.09;100.00;99932.63;4932202;29;20147;-74
2022/04/04 08:00:29;;;;;;;3.20;0.95;;;;;;;9.10;100.00;99918.03;4933056;29;20055;-77
2022/04/04 08:02:58;;;;;;;5.57;1.20;;;;;;;9.12;100.00;99921.53;4932874;29;20134;-74
2022/04/04 08:05:27;;;;;;;3.50;0.93;;;;;;;9.10;100.00;99910.31;4932115;29;20155;-75
2022/04/04 08:07:55;;;;;;;2.17;0.98;;;;;;;9.03;100.00;99898.97;4932787;29;20056;-79
2022/04/04 08:10:25;;;;;;;4.63;1.20;;;;;;;9.01;100.00;99898.94;4932678;29;20098;-76
2022/04/04 08:12:54;;;;;;;2.70;0.50;;;;;;;9.02;100.00;99905.84;4932400;29;20056;-76
2022/04/04 08:15:23;;;;;;;2.40;0.70;;;;;;;9.01;100.00;99906.66;4913907;29;20056;-81
2022/04/04 08:17:51;;;;;;;1.92;0.77;;;;;;;8.98;100.00;99888.53;4922643;28;20582;-75
2022/04/04 08:20:21;;;;;;;2.55;0.80;;;;;;;9.00;100.00;99892.03;4932652;29;20119;-77
2022/04/04 08:22:50;;;;;;;5.57;1.02;;;;;;;8.97;100.00;99891.94;4916022;29;20151;-74
2022/04/04 08:25:18;;;;;;;3.22;0.68;;;;;;;8.98;100.00;99882.53;4912960;29;20051;-74
2022/04/04 08:27:49;;;;;;;1.55;0.90;;;;;;;9.01;100.00;99878.28;4912450;29;20731;-79
2022/04/04 08:30:19;;;;;;;3.08;0.75;;;;;;;8.97;100.00;99886.78;4913559;29;20060;-74
2022/04/04 08:32:48;;;;;;;3.33;0.80;;;;;;;8.93;100.00;99892.75;4916505;29;20115;-75
2022/04/04 08:35:18;;;;;;;2.35;0.85;;;;;;;8.97;100.00;99878.19;4913832;29;20107;-77
2022/04/04 08:37:47;;;;;;;4.18;1.10;;;;;;;8.98;100.00;99861.88;4913209;29;20130;-78
2022/04/04 08:40:18;;;;;;;3.65;0.90;;;;;;;8.96;100.00;99864.41;4913234;29;20048;-76
2022/04/04 08:42:49;;;;;;;3.80;1.00;;;;;;;9.00;100.00;99866.22;4913008;29;20116;-83
2022/04/04 08:45:17;;;;;;;1.50;0.60;;;;;;;8.93;100.00;99848.88;4913521;29;20063;-80
2022/04/04 08:47:46;;;;;;;0.80;0.52;;;;;;;8.96;100.00;99858.41;4913291;29;20048;-81
2022/04/04 08:50:15;;;;;;;2.72;1.13;;;;;;;8.98;100.00;99862.75;4913579;29;20077;-78
2022/04/04 08:52:45;;;;;;;3.63;0.80;;;;;;;8.96;100.00;99838.63;4912440;29;20044;-83
2022/04/04 08:55:15;;;;;;;3.45;0.70;;;;;;;8.96;100.00;99830.88;4912646;29;20055;-73
2022/04/04 08:57:44;;;;;;;3.03;0.80;;;;;;;8.96;100.00;99846.34;4911866;29;20125;-78
2022/04/04 09:00:15;;;;;;;1.65;0.68;;;;;;;8.93;100.00;99853.16;4913722;29;20052;-79
2022/04/04 09:02:58;;;;;;;5.45;0.73;;;;;;;8.95;100.00;99830.84;4912721;29;20116;-80
2022/04/04 09:05:29;;;;;;;1.85;0.50;;;;;;;8.93;100.00;99817.03;4927399;29;20061;-79
2022/04/04 09:08:03;;;;;;;2.15;0.82;;;;;;;8.89;100.00;99805.78;4931781;29;20065;-77
2022/04/04 09:10:36;;;;;;;1.30;0.68;;;;;;;8.92;100.00;99808.44;4932155;29;20059;-74
2022/04/04 09:13:14;;;;;;;4.90;0.90;;;;;;;8.90;100.00;99788.59;4931921;29;20055;-80
2022/04/04 09:15:58;;;;;;;5.07;0.80;;;;;;;8.89;100.00;99797.19;4931980;29;20056;-77
2022/04/04 09:18:55;;;;;;;1.45;0.70;;;;;;;8.86;100.00;99790.22;4931430;28;20122;-76
2022/04/04 09:21:35;;;;;;;3.50;0.90;;;;;;;8.84;100.00;99784.16;4931416;29;20052;-77
2022/04/04 09:24:11;;;;;;;4.22;0.90;;;;;;;8.86;100.00;99784.22;4932127;29;20201;-79
2022/04/04 09:26:41;;;;;;;2.13;0.80;;;;;;;8.84;100.00;99772.97;4931648;29;20044;-80
2022/04/04 09:29:16;;;;;;;1.83;0.70;;;;;;;8.81;100.00;99776.38;4934217;29;20062;-80
2022/04/04 09:32:05;;;;;;;1.00;0.30;;;;;;;8.79;100.00;99767.72;4932133;29;20055;-78
2022/04/04 09:34:56;;;;;;;1.77;0.63;;;;;;;8.77;100.00;99769.41;4931799;29;20043;-77
2022/04/04 09:37:26;;;;;;;1.80;0.70;;;;;;;8.77;100.00;99779.72;4932162;29;20047;-76
2022/04/04 09:40:05;;;;;;;2.47;0.55;;;;;;;8.75;100.00;99761.66;4932718;29;20084;-77
2022/04/04 09:42:33;;;;;;;1.45;0.57;;;;;;;8.77;100.00;99753.94;4931966;29;20177;-77
2022/04/04 09:45:04;;;;;;;1.75;0.60;;;;;;;8.80;100.00;99746.28;4931399;29;20055;-74
2022/04/04 09:47:52;;;;;;;1.15;0.63;;;;;;;8.74;100.00;99738.41;4931148;29;20079;-78
2022/04/04 09:50:39;;;;;;;3.55;0.60;;;;;;;8.75;100.00;99760.75;4931085;29;20055;-83
2022/04/04 09:53:10;;;;;;;2.42;0.80;;;;;;;8.75;100.00;99724.66;4931797;29;20642;-76
2022/04/04 09:55:40;;;;;;;0.88;0.52;;;;;;;8.77;100.00;99733.28;4930664;29;20051;-77
2022/04/04 09:58:11;;;;;;;6.38;0.95;;;;;;;8.77;100.00;99728.13;4931488;29;20079;-77
2022/04/04 10:00:42;;;;;;;2.35;0.70;;;;;;;8.76;100.00;99736.72;4931046;29;20056;-77
2022/04/04 10:03:13;;;;;;;5.93;0.82;;;;;;;8.77;100.00;99729.03;4930717;29;20052;-75
2022/04/04 10:05:43;;;;;;;3.10;0.50;;;;;;;8.78;100.00;99727.31;4930604;29;20139;-78
2022/04/04 10:08:16;;;;;;;2.03;0.82;;;;;;;8.72;100.00;99709.13;4932075;29;20055;-82
2022/04/04 10:10:45;;;;;;;3.13;0.82;;;;;;;8.76;100.00;99706.63;4934882;29;20139;-78
2022/04/04 10:13:15;;;;;;;1.30;0.65;;;;;;;8.72;100.00;99725.47;4934800;29;20052;-79
2022/04/04 10:15:44;;;;;;;3.97;0.90;;;;;;;8.76;100.00;99710.94;4935004;29;20060;-78
2022/04/04 10:18:23;;;;;;;2.42;0.65;;;;;;;8.81;100.00;99701.56;4934181;28;20115;-75
2022/04/04 10:20:53;;;;;;;1.80;0.60;;;;;;;8.84;100.00;99708.50;4934961;29;20051;-77
2022/04/04 10:23:22;;;;;;;3.60;0.88;;;;;;;8.79;100.00;99705.81;4933322;29;20058;-81
2022/04/04 10:25:52;;;;;;;2.95;0.50;;;;;;;8.84;100.00;99723.97;4936088;29;20055;-81
2022/04/04 10:28:28;;;;;;;0.82;0.50;;;;;;;8.88;100.00;99705.13;4938129;29;20047;-81
2022/04/04 10:31:00;;;;;;;3.50;0.70;;;;;;;8.88;100.00;99703.41;4932497;29;20506;-78
2022/04/04 10:33:30;;;;;;;1.38;0.60;;;;;;;8.87;100.00;99722.34;4924921;29;20064;-83
2022/04/04 10:36:03;;;;;;;1.48;0.52;;;;;;;8.86;100.00;99691.34;4915959;29;20048;-76
2022/04/04 10:38:32;;;;;;;2.05;1.17;;;;;;;8.85;100.00;99698.22;4914909;29;20048;-82
2022/04/04 10:41:05;;;;;;;2.90;0.70;;;;;;;8.83;100.00;99694.72;4915553;29;20111;-77
2022/04/04 10:43:34;;;;;;;;;;;;;;;8.83;100.00;99689.56;4916235;29;20071;-81
2022/04/04 10:46:04;;;;;;;1.42;0.50;;;;;;;8.83;100.00;99692.16;4916363;29;19929;-81
2022/04/04 10:48:36;;;;;;;0.50;0.40;;;;;;;8.89;100.00;99681.09;4926485;29;20055;-79
2022/04/04 10:51:15;;;;;;;1.08;0.60;;;;;;;8.87;100.00;99688.81;4934594;29;20549;-81
2022/04/04 10:53:45;;;;;;;1.98;0.82;;;;;;;8.84;100.00;99668.09;4934246;29;20544;-82
2022/04/04 10:56:19;;;;;;;0.70;0.45;;;;;;;8.92;100.00;99669.13;4934301;29;20051;-76
2022/04/04 10:58:48;;;;;;;2.47;0.60;;;;;;;8.93;100.00;99677.72;4933919;29;20055;-82
2022/04/04 11:01:18;;;;;;;2.08;0.63;;;;;;;8.88;100.00;99659.56;4934153;29;20106;-78
2022/04/04 11:04:24;;;;;;;3.90;0.90;;;;;;;8.94;100.00;99664.84;4933666;29;20048;-81
2022/04/04 11:09:52;;;;;;;2.85;0.77;;;;;;;8.98;100.00;99669.22;4933322;29;20186;-78
2022/04/04 11:12:23;;;;;;;2.05;0.43;;;;;;;8.99;100.00;99662.34;4933723;29;20051;-78
2022/04/04 11:14:58;;;;;;;1.00;0.60;;;;;;;9.02;100.00;99665.88;4933644;29;20111;-79
2022/04/04 11:17:36;;;;;;;1.33;0.50;;;;;;;9.02;100.00;99681.34;4933110;29;20087;-80
2022/04/04 11:20:34;;;;;;;1.15;0.50;;;;;;;8.99;100.00;99654.63;4895033;29;20078;-73
2022/04/04 11:23:08;;;;;;;0.70;0.55;;;;;;;8.95;100.00;99656.25;4896826;29;20438;-79
2022/04/04 11:25:38;;;;;;;3.38;0.82;;;;;;;8.99;100.00;99652.91;4899427;29;20059;-75
2022/04/04 11:28:10;;;;;;;1.70;0.75;;;;;;;8.99;100.00;99660.63;4896962;29;20052;-81
2022/04/04 11:30:38;;;;;;;1.40;0.47;;;;;;;9.00;100.00;99664.09;4894697;29;20056;-79
2022/04/04 11:33:11;;;;;;;0.40;0.32;;;;;;;9.04;100.00;99668.47;4896355;29;20090;-82
2022/04/04 11:35:42;;;;;;;0.40;0.40;;;;;;;9.00;100.00;99670.13;4895763;29;20414;-77
2022/04/04 11:38:12;;;;;;;0.43;0.40;;;;;;;8.99;100.00;99663.22;4895946;29;20420;-77
2022/04/04 11:40:44;;;;;;;1.13;0.50;;;;;;;8.98;100.00;99671.81;4895872;29;20052;-83
2022/04/04 11:43:14;;;;;;;0.68;0.40;;;;;;;8.91;100.00;99644.16;4895526;29;20057;-79
2022/04/04 11:45:44;;;;;;;0.50;0.35;;;;;;;8.91;100.00;99646.75;4895873;29;20056;-79
2022/04/04 11:48:16;;;;;;;0.70;0.50;;;;;;;8.90;100.00;99641.56;4895026;29;20044;-79
2022/04/04 11:50:48;;;;;;;0.73;0.73;;;;;;;8.94;100.00;99633.91;4894962;29;20088;-78